• Join FlightAware (Why Join?)
  • Login
  • US Flag 
03:08AM EDT


 

Airport Tracker/Info


-or-


 

Live Flight TrackerFlight Track Log ✈ DAL3698 ✈ 19-Apr-2013 ✈ KLAN - KMSP

Flight Track Log - Related Links

Times and Time Zones

All times are in EDT time to prevent confusion due to time zone crossing. See the DAL3698 flight status page for this flight to view local times or setup timezone preferences in your user account.

Time Position Orientation Groundspeed Altitude Reporting Facility
EDT Latitude Longitude Course Direction KTS MPH feet Rate Location/Type
07:58AM 42.7808 -84.6372 276° West 153 176 2,600  Level Cleveland Center
07:58AM 42.7800 -84.6469 263° West 162 186 2,900 1,680 Climbing Chicago Center
07:59AM 42.7811 -84.7156 271° West 182 209 4,800 2,040 Climbing Chicago Center
08:00AM 42.7819 -84.8058 271° West 231 266 7,200 2,220 Climbing Chicago Center
08:01AM 42.7404 -85.0426 283° West  Level FlightAware Approximate
08:01AM 42.7847 -84.8986 272° West 242 278 9,400  Level Chicago Center
08:02AM 42.7548 -85.1619 276° West  Level FlightAware Approximate
08:02AM 42.7856 -85.0008 271° West 265 305 11,500  Level Chicago Center
08:03AM 42.7641 -85.2824 276° West  Level FlightAware Approximate
08:03AM 42.7850 -85.1136 270° West 294 338 12,500  Level Chicago Center
08:04AM 42.7861 -85.2361 271° West 320 368 14,400 2,220 Climbing Chicago Center
08:06AM 42.7875 -85.3797 271° West 317 365 17,100 2,160 Climbing Chicago Center
08:07AM 42.7883 -85.4936 271° West 303 349 18,900 1,380 Climbing Chicago Center
08:08AM 42.8033 -85.6161 280° West 324 373 20,000 960 Climbing Chicago Center
08:09AM 42.8183 -85.7392 279° West 328 377 20,900 840 Climbing Chicago Center
08:10AM 42.8350 -85.8656 280° West 336 387 21,800 1,380 Climbing Chicago Center
08:11AM 42.8511 -85.9869 280° West 322 371 23,800 1,440 Climbing Chicago Center
08:12AM 42.8647 -86.1050 279° West 312 359 24,800 1,020 Climbing Chicago Center
08:13AM 42.8808 -86.2236 281° West 315 362 26,000 540 Climbing Chicago Center
08:14AM 42.8947 -86.3444 279° West 320 368 26,000  Level Chicago Center
08:15AM 42.9100 -86.4633 280° West 318 366 26,000  Level Chicago Center
08:16AM 42.9272 -86.6075 279° West 321 369 26,000  Level Chicago Center
08:17AM 42.9414 -86.7269 279° West 320 368 26,000  Level Chicago Center
08:18AM 42.9553 -86.8469 279° West 321 369 26,000  Level Chicago Center
08:19AM 42.9697 -86.9678 279° West 324 373 26,000  Level Chicago Center
08:20AM 42.9847 -87.0878 280° West 322 371 26,000  Level Chicago Center
08:21AM 42.9978 -87.2078 279° West 322 371 26,000  Level Chicago Center
08:22AM 43.0119 -87.3283 279° West 323 372 26,000  Level Chicago Center
08:23AM 43.0281 -87.4686 279° West 318 366 26,000  Level Chicago Center
08:24AM 43.0411 -87.5881 279° West 317 365 26,000  Level Chicago Center
08:25AM 43.0539 -87.7078 278° West 317 365 26,000  Level Chicago Center
08:26AM 43.0697 -87.8367 280° West 338 389 26,000  Level Chicago Center
08:27AM 43.1442 -87.9878 304° West 404 465 26,000  Level Chicago Center
08:28AM 43.2064 -88.1183 303° West 408 470 26,000  Level Chicago Center
08:29AM 43.2694 -88.2475 304° West 406 467 26,000  Level Chicago Center
08:30AM 43.3325 -88.3783 304° West 407 468 26,000  Level Chicago Center
08:31AM 43.3983 -88.5133 304° West 412 474 26,000  Level Chicago Center
08:32AM 43.4639 -88.6522 303° West 418 481 26,000  Level Chicago Center
08:33AM 43.5278 -88.7872 303° West 418 481 26,000  Level Chicago Center
08:34AM 43.5919 -88.9225 303° West 420 483 26,000  Level Chicago Center
08:35AM 43.6550 -89.0550 303° West 413 475 26,000  Level Chicago Center
08:36AM 43.7161 -89.1875 303° West 411 473 26,000  Level Minneapolis Center
08:37AM 43.7786 -89.3211 303° West 414 476 26,000  Level Minneapolis Center
08:38AM 43.8406 -89.4533 303° West 410 472 26,000  Level Minneapolis Center
08:39AM 43.9119 -89.6078 303° West 410 472 26,000  Level Minneapolis Center
08:40AM 43.9722 -89.7369 303° West 402 463 26,000  Level Minneapolis Center
08:41AM 44.0294 -89.8625 302° West 391 450 26,000  Level Minneapolis Center
08:42AM 44.0889 -89.9869 304° West 388 447 26,000  Level Minneapolis Center
08:43AM 44.1567 -90.1058 308° West 392 451 26,000  Level Minneapolis Center
08:45AM 44.2122 -90.2308 302° West 385 443 26,000  Level Minneapolis Center
08:46AM 44.2653 -90.3578 300° West 381 438 26,000  Level Minneapolis Center
08:47AM 44.3297 -90.5089 301° West 388 447 26,000  Level Minneapolis Center
08:48AM 44.3847 -90.6417 300° West 395 455 26,000  Level Minneapolis Center
08:49AM 44.4408 -90.7753 300° West 399 459 26,000  Level Minneapolis Center
08:50AM 44.4992 -90.9186 300° West 394 453 26,000  Level Minneapolis Center
08:51AM 44.5531 -91.0494 300° West 392 451 26,000  Level Minneapolis Center
08:52AM 44.6064 -91.1808 300° West 391 450 26,000  Level Minneapolis Center
08:53AM 44.6600 -91.3117 300° West 390 449 26,000 -600 Level Minneapolis Center
08:54AM 44.7131 -91.4436 300° West 389 448 24,900 -1,020 Descending Minneapolis Center
08:55AM 44.7653 -91.5714 300° West 384 442 24,000 -540 Descending Minneapolis Center
08:56AM 44.8161 -91.6989 299° West 377 434 23,900 -1,380 Descending Minneapolis Center
08:57AM 44.8672 -91.8272 299° West 378 435 21,200 -3,000 Descending Minneapolis Center
08:57AM 44.9061 -91.9006 307° West 374 430 19,500 -3,240 Descending FAA TRACON SMA TRACON (SMA)
08:58AM 44.9211 -91.9381 299° West 361 415 18,700 -3,300 Descending FAA TRACON SMA TRACON (SMA)
08:58AM 44.9378 -91.9839 297° West 347 399 17,300 -3,300 Descending FAA TRACON SMA TRACON (SMA)
08:58AM 44.9522 -92.0194 300° West 342 394 16,500 -2,280 Descending FAA TRACON SMA TRACON (SMA)
08:59AM 44.9658 -92.0558 298° West 338 389 15,800 -2,580 Descending FAA TRACON SMA TRACON (SMA)
08:59AM 44.9817 -92.1006 297° West 337 388 14,800 -2,700 Descending FAA TRACON SMA TRACON (SMA)
08:59AM 44.9947 -92.1347 298° West 331 381 14,000 -2,280 Descending FAA TRACON SMA TRACON (SMA)
09:00AM 45.0081 -92.1689 299° West 324 373 13,300 -2,580 Descending FAA TRACON SMA TRACON (SMA)
09:00AM 45.0239 -92.2100 299° West 316 364 12,300 -2,640 Descending FAA TRACON SMA TRACON (SMA)
09:00AM 45.0353 -92.2431 296° West 310 357 11,500 -1,920 Descending FAA TRACON SMA TRACON (SMA)
09:01AM 45.0469 -92.2753 297° West 305 351 11,000 -780 Descending FAA TRACON SMA TRACON (SMA)
09:01AM 45.0531 -92.3211 281° West 311 358 11,000 -360 Level FAA TRACON SMA TRACON (SMA)
09:01AM 45.0472 -92.3586 258° West 315 362 10,800 -780 Descending FAA TRACON SMA TRACON (SMA)
09:02AM 45.0403 -92.3933 254° West 304 350 10,500 -1,080 Descending FAA TRACON SMA TRACON (SMA)
09:02AM 45.0333 -92.4261 253° West 288 331 10,100 -1,500 Descending FAA TRACON SMA TRACON (SMA)
09:02AM 45.0264 -92.4664 256° West 275 316 9,500 -1,680 Descending FAA TRACON SMA TRACON (SMA)
09:03AM 45.0206 -92.4981 255° West 270 311 9,000 -1,500 Descending FAA TRACON SMA TRACON (SMA)
09:03AM 45.0150 -92.5294 256° West 267 307 8,500 -1,500 Descending FAA TRACON SMA TRACON (SMA)
09:03AM 45.0081 -92.5683 256° West 265 305 8,000 -1,500 Descending FAA TRACON SMA TRACON (SMA)
09:04AM 45.0039 -92.5997 259° West 265 305 7,500 -1,440 Descending FAA TRACON SMA TRACON (SMA)
09:04AM 44.9992 -92.6300 258° West 261 300 7,100 -780 Descending FAA TRACON SMA TRACON (SMA)
09:04AM 44.9925 -92.6678 256° West 255 293 7,000 -300 Descending FAA TRACON SMA TRACON (SMA)
09:05AM 44.9864 -92.6975 254° West 255 293 6,900  Descending FAA TRACON SMA TRACON (SMA)
09:05AM 44.9817 -92.7278 258° West 257 296 7,000 120 Climbing FAA TRACON SMA TRACON (SMA)
09:05AM 44.9753 -92.7656 257° West 257 296 7,000 -180 Level FAA TRACON SMA TRACON (SMA)
09:06AM 44.9700 -92.7961 256° West 260 299 6,900 -180 Descending FAA TRACON SMA TRACON (SMA)
09:06AM 44.9614 -92.8258 248° West 266 306 6,900  Level FAA TRACON SMA TRACON (SMA)
09:06AM 44.9361 -92.8492 213° Southwest 286 329 6,900  Level FAA TRACON SMA TRACON (SMA)
09:07AM 44.9133 -92.8642 205° Southwest 290 334 6,900  Level FAA TRACON SMA TRACON (SMA)
09:07AM 44.8903 -92.8719 193° South 289 333 6,900 120 Level FAA TRACON SMA TRACON (SMA)
09:07AM 44.8636 -92.8542 155° Southeast 289 333 7,000  Climbing FAA TRACON SMA TRACON (SMA)
09:08AM 44.8522 -92.8275 121° Southeast 272 313 6,900 -180 Descending FAA TRACON SMA TRACON (SMA)
09:08AM 44.8417 -92.8011 119° Southeast 253 291 6,900 120 Level FAA TRACON SMA TRACON (SMA)
09:08AM 44.8303 -92.7692 117° Southeast 238 274 7,000  Climbing FAA TRACON SMA TRACON (SMA)
09:09AM 44.8156 -92.7492 136° Southeast 244 281 6,900 -180 Descending FAA TRACON SMA TRACON (SMA)
09:09AM 44.7944 -92.7467 175° South 259 298 6,900 120 Level FAA TRACON SMA TRACON (SMA)
09:09AM 44.7725 -92.7631 208° Southwest 248 285 7,000  Climbing FAA TRACON SMA TRACON (SMA)
09:10AM 44.7569 -92.7767 212° Southwest 224 258 6,900 -480 Descending FAA TRACON SMA TRACON (SMA)
09:10AM 44.7422 -92.7892 211° Southwest 209 241 6,700 -1,080 Descending FAA TRACON SMA TRACON (SMA)
09:10AM 44.7344 -92.8136 246° West 196 226 6,200 -1,140 Descending FAA TRACON SMA TRACON (SMA)
09:11AM 44.7319 -92.8347 261° West 180 207 5,900 -1,020 Descending FAA TRACON SMA TRACON (SMA)
09:11AM 44.7344 -92.8578 279° West 168 193 5,500 -1,020 Descending FAA TRACON SMA TRACON (SMA)
09:11AM 44.7389 -92.8694 298° West 153 176 5,300 -840 Descending FAA TRACON SMA TRACON (SMA)
09:12AM 44.7481 -92.8881 305° West 147 169 5,000 -480 Descending FAA TRACON SMA TRACON (SMA)
09:12AM 44.7553 -92.9028 305° West 147 169 5,000 -180 Level FAA TRACON SMA TRACON (SMA)
09:12AM 44.7614 -92.9181 299° West 147 169 4,900 -180 Descending FAA TRACON SMA TRACON (SMA)
09:13AM 44.7700 -92.9369 303° West 148 170 4,900  Level FAA TRACON SMA TRACON (SMA)
09:13AM 44.7758 -92.9519 299° West 146 168 4,900 -180 Level FAA TRACON SMA TRACON (SMA)
09:13AM 44.7828 -92.9667 304° West 144 166 4,800 -600 Descending FAA TRACON SMA TRACON (SMA)
09:14AM 44.7903 -92.9853 300° West 144 166 4,500 -900 Descending FAA TRACON SMA TRACON (SMA)
09:14AM 44.7972 -93.0003 303° West 145 167 4,200 -900 Descending FAA TRACON SMA TRACON (SMA)
09:14AM 44.8036 -93.0144 302° West 143 165 3,900 -900 Descending FAA TRACON SMA TRACON (SMA)
09:15AM 44.8111 -93.0319 301° West 137 158 3,600 -780 Descending FAA TRACON SMA TRACON (SMA)
09:15AM 44.8175 -93.0464 302° West 137 158 3,400 -780 Descending FAA TRACON SMA TRACON (SMA)
09:15AM 44.8233 -93.0606 300° West 138 159 3,100 -900 Descending FAA TRACON SMA TRACON (SMA)
09:16AM 44.8314 -93.0781 303° West 138 159 2,800 -780 Descending FAA TRACON SMA TRACON (SMA)
09:16AM 44.8378 -93.0928 301° West 140 161 2,600 -780 Descending FAA TRACON SMA TRACON (SMA)
09:16AM 44.8436 -93.1078 299° West 143 165 2,300 -900 Descending FAA TRACON SMA TRACON (SMA)